createdAt,value
2019-03-04T08:47:41.491Z,35.66
2019-03-04T08:53:36.799Z,15
2019-03-04T08:59:31.434Z,13.28
2019-03-04T09:05:26.472Z,9.71
2019-03-04T09:11:21.486Z,14.09
2019-03-04T09:17:16.459Z,14.64
2019-03-04T09:23:11.463Z,12.68
2019-03-04T09:29:06.486Z,12.43
2019-03-04T09:35:01.489Z,12.45
2019-03-04T09:40:56.462Z,11.76
2019-03-04T09:46:51.471Z,13.77
2019-03-04T09:52:46.484Z,11.85
2019-03-04T09:58:41.520Z,15.32
2019-03-04T10:04:36.815Z,16.04
2019-03-04T10:10:31.501Z,14.6
2019-03-04T10:16:26.582Z,15.95
2019-03-04T10:22:21.539Z,11.32
2019-03-04T10:28:16.505Z,11.08
2019-03-04T10:34:11.520Z,11.39
2019-03-04T10:40:06.509Z,10.79
2019-03-04T10:46:01.521Z,13.31
2019-03-04T10:51:56.527Z,15.24
2019-03-04T10:57:51.541Z,14.41
2019-03-04T11:03:46.535Z,12.76
2019-03-04T11:09:41.535Z,7.23
2019-03-04T11:15:36.868Z,8.19
2019-03-04T11:21:31.534Z,15.86
2019-03-04T11:27:26.557Z,10.34
2019-03-04T11:33:21.556Z,9.91
2019-03-04T11:39:16.594Z,10.46
2019-03-04T11:45:11.565Z,8.24
2019-03-04T11:51:06.555Z,10.24
2019-03-04T11:57:01.632Z,11.04
2019-03-04T12:02:56.566Z,12.42
2019-03-04T12:08:51.583Z,12.74
2019-03-04T12:14:46.578Z,9.95
2019-03-04T12:26:36.576Z,9.39
2019-03-04T12:26:36.610Z,10.66
2019-03-04T12:32:31.615Z,8.5
2019-03-04T12:38:26.618Z,12.7
2019-03-04T12:44:21.601Z,11.8
2019-03-04T12:50:16.599Z,11.23
2019-03-04T12:56:11.617Z,11.52
2019-03-04T13:02:06.630Z,9.43
2019-03-04T13:08:01.668Z,11.63
2019-03-04T13:13:56.661Z,14.58
2019-03-04T13:19:51.630Z,10.71
2019-03-04T13:25:46.602Z,10.27
2019-03-04T13:31:41.914Z,12.2
2019-03-04T13:37:37.973Z,19.6
2019-03-04T13:43:31.607Z,15.04
2019-03-04T13:49:26.646Z,9.99
2019-03-04T13:55:21.638Z,12.23
2019-03-04T14:01:16.667Z,9
2019-03-04T14:07:11.625Z,9.43
2019-03-04T14:13:06.636Z,12.22
2019-03-04T14:19:01.680Z,14.76
2019-03-04T14:24:56.651Z,17.51
2019-03-04T14:30:51.674Z,14.23
2019-03-04T14:36:46.666Z,10.9
2019-03-04T14:42:42.029Z,6
2019-03-04T14:48:36.979Z,11.83
2019-03-04T14:54:31.672Z,10.69
2019-03-04T15:00:26.686Z,6.44
2019-03-04T15:12:16.699Z,3.48
2019-03-04T15:12:16.712Z,3.84
2019-03-04T15:18:11.711Z,5.81
2019-03-04T15:24:06.700Z,9.75
2019-03-04T15:30:01.690Z,7.12
2019-03-04T15:35:56.797Z,6.82
2019-03-04T15:41:51.741Z,5.21
2019-03-04T15:47:46.710Z,10.84
2019-03-04T15:53:43.476Z,14.41
2019-03-04T15:59:37.009Z,11.43
2019-03-04T16:29:11.764Z,7.5
2019-03-04T16:29:11.769Z,9.23
2019-03-04T16:29:11.813Z,7.5
2019-03-04T16:29:11.813Z,7.5
2019-03-04T16:29:11.870Z,7.5
2019-03-04T16:35:06.740Z,12.21
2019-03-04T16:41:01.841Z,11.24
2019-03-04T16:46:56.751Z,9.65
2019-03-04T16:58:46.771Z,16.47
2019-03-04T16:58:47.826Z,16.13
2019-03-04T17:04:42.071Z,21.77
2019-03-04T17:10:37.053Z,24.79
2019-03-04T21:54:36.977Z,15.91
2019-03-04T22:00:31.945Z,23.43
2019-03-04T22:06:26.955Z,22.95
2019-03-04T22:12:21.944Z,24.47
2019-03-04T22:18:16.955Z,22.73
2019-03-04T22:24:11.985Z,29.5
2019-03-04T22:30:06.969Z,25
2019-03-04T22:36:01.984Z,22.46
2019-03-04T22:41:56.938Z,20.53
2019-03-04T22:47:51.994Z,21.22
2019-03-04T22:53:46.974Z,29.14
2019-03-04T22:59:42.025Z,26.05
2019-03-04T23:05:36.982Z,21.59
2019-03-04T23:11:31.973Z,23.57
2019-03-04T23:17:26.989Z,19.89
2019-03-04T23:23:21.979Z,21.11
2019-03-04T23:29:17.004Z,26.89
